CW4038 Weather Reports


Display with metric or nautical units.
time (UTC)temp
F
wind
direction
speed
MPH
gust
MPH
rain 1hr
in
rain 24hr
in
rain mn
in
humidity
%
barometer
mb
20181113000521 72 98 1.0 5.0 0.00 0.00 0.00 23 1025.0
20181112235620 73 348 2.0 6.0 0.00 0.00 0.00 22 1025.0
20181112234719 74 352 2.0 6.0 0.00 0.00 0.00 22 1025.0
20181112233817 75 347 2.0 5.0 0.00 0.00 0.00 20 1024.7
20181112232916 75 34 1.0 4.0 0.00 0.00 0.00 21 1025.0
20181112232015 75 318 0.0 4.0 0.00 0.00 0.00 21 1024.7
20181112231114 75 335 2.0 4.0 0.00 0.00 0.00 21 1024.7
20181112230214 76 342 2.0 3.0 0.00 0.00 0.00 20 1024.7
20181112225313 76 330 1.0 3.0 0.00 0.00 0.00 20 1024.7
20181112224412 75 329 1.0 3.0 0.00 0.00 0.00 19 1024.7
20181112223512 75 359 1.0 4.0 0.00 0.00 0.00 18 1024.7
20181112222611 75 331 2.0 4.0 0.00 0.00 0.00 18 1024.7
20181112221709 74 23 1.0 4.0 0.00 0.00 0.00 19 1024.7
20181112220809 74 354 1.0 4.0 0.00 0.00 0.00 20 1024.7
20181112215907 75 26 1.0 3.0 0.00 0.00 0.00 19 1024.7
20181112215007 76 314 1.0 3.0 0.00 0.00 0.00 20 1024.7
20181112214106 77 311 0.0 2.0 0.00 0.00 0.00 19 1024.7
20181112213205 76 345 1.0 1.0 0.00 0.00 0.00 20 1024.7
20181112212304 75 319 1.0 2.0 0.00 0.00 0.00 22 1024.7
20181112211403 74 49 1.0 2.0 0.00 0.00 0.00 20 1024.7
20181112210503 76 328 1.0 2.0 0.00 0.00 0.00 20 1025.1
20181112205601 76 144 1.0 2.0 0.00 0.00 0.00 21 1025.1
20181112204700 74 121 0.0 2.0 0.00 0.00 0.00 21 1025.1
20181112203800 72 136 1.0 3.0 0.00 0.00 0.00 24 1025.0
20181112202859 71 28 1.0 4.0 0.00 0.00 0.00 25 1025.4
20181112201958 70 68 2.0 3.0 0.00 0.00 0.00 27 1025.3
20181112201057 69 164 1.0 3.0 0.00 0.00 0.00 29 1025.3
20181112200156 68 329 2.0 3.0 0.00 0.00 0.00 30 1025.3
20181112195256 67 339 2.0 3.0 0.00 0.00 0.00 33 1025.3
20181112194354 66 339 1.0 3.0 0.00 0.00 0.00 33 1025.6
20181112193454 66 63 1.0 3.0 0.00 0.00 0.00 34 1025.6
20181112192553 65 35 1.0 3.0 0.00 0.00 0.00 36 1025.6
20181112191652 63 0 2.0 3.0 0.00 0.00 0.00 38 1025.9
20181112190751 62 301 1.0 3.0 0.00 0.00 0.00 39 1025.9
20181112185850 61 334 2.0 3.0 0.00 0.00 0.00 41 1025.9
20181112184949 61 336 2.0 3.0 0.00 0.00 0.00 42 1026.3
20181112184048 60 350 1.0 2.0 0.00 0.00 0.00 46 1026.3
20181112183147 59 46 1.0 3.0 0.00 0.00 0.00 46 1026.2
20181112182246 58 11 1.0 3.0 0.00 0.00 0.00 47 1026.2
20181112181345 57 335 2.0 3.0 0.00 0.00 0.00 49 1026.5
20181112180445 57 323 2.0 3.0 0.00 0.00 0.00 49 1026.5
20181112175543 56 359 1.0 3.0 0.00 0.00 0.00 51 1026.6
20181112174642 56 346 2.0 3.0 0.00 0.00 0.00 51 1026.5
20181112173742 55 237 1.0 2.0 0.00 0.00 0.00 50 1026.9
20181112172841 55 176 1.0 2.0 0.00 0.00 0.00 52 1026.5
20181112171940 54 184 0.0 2.0 0.00 0.00 0.00 54 1026.5
20181112171039 53 175 1.0 2.0 0.00 0.00 0.00 56 1026.5
20181112170138 51 114 1.0 1.0 0.00 0.00 0.00 60 1026.5
20181112165238 51 149 0.0 2.0 0.00 0.00 0.00 60 1026.5
20181112164337 50 161 1.0 3.0 0.00 0.00 0.00 62 1026.5
20181112163436 49 141 1.0 3.0 0.00 0.00 0.00 63 1026.5
20181112162535 48 170 1.0 1.0 0.00 0.00 0.00 65 1026.2
20181112161635 48 143 1.0 1.0 0.00 0.00 0.00 67 1026.2
20181112160734 46 132 0.0 1.0 0.00 0.00 0.00 70 1026.1
20181112155833 45 132 0.0 1.0 0.00 0.00 0.00 74 1026.1
20181112154932 44 133 1.0 1.0 0.00 0.00 0.00 78 1026.1
20181112154031 42 143 0.0 0.0 0.00 0.00 0.00 83 1025.8
20181112153131 39 143 0.0 0.0 0.00 0.00 0.00 87 1025.7
20181112152230 37 143 0.0 0.0 0.00 0.00 0.00 89 1025.7
20181112151329 36 144 0.0 0.0 0.00 0.00 0.00 88 1025.7
20181112150428 35 146 0.0 0.0 0.00 0.00 0.00 88 1025.7
20181112145528 35 143 0.0 0.0 0.00 0.00 0.00 88 1025.3
20181112144627 34 145 0.0 0.0 0.00 0.00 0.00 89 1025.4
20181112143726 34 146 0.0 0.0 0.00 0.00 0.00 88 1025.4
20181112142825 34 146 0.0 0.0 0.00 0.00 0.00 89 1025.4
20181112141924 34 146 0.0 0.0 0.00 0.00 0.00 89 1025.0
20181112141023 34 145 0.0 0.0 0.00 0.00 0.00 89 1025.1
20181112140122 34 74 0.0 0.0 0.00 0.00 0.00 89 1025.1
20181112135221 35 73 0.0 0.0 0.00 0.00 0.00 89 1024.7
20181112134321 35 73 0.0 0.0 0.00 0.00 0.00 88 1024.8
20181112133420 36 74 0.0 0.0 0.00 0.00 0.00 88 1025.1
20181112132519 35 74 0.0 0.0 0.00 0.00 0.00 89 1024.8
20181112131619 35 73 0.0 0.0 0.00 0.00 0.00 89 1024.8
20181112130717 35 73 0.0 0.0 0.00 0.00 0.00 88 1024.8
20181112125817 35 74 0.0 0.0 0.00 0.00 0.00 87 1024.8
20181112124916 35 73 0.0 0.0 0.00 0.00 0.00 87 1024.8
20181112124015 36 73 0.0 0.0 0.00 0.00 0.00 86 1024.5
20181112123114 36 74 0.0 0.0 0.00 0.00 0.00 86 1024.5
20181112122213 37 73 0.0 0.0 0.00 0.00 0.00 86 1024.5
20181112121313 37 73 0.0 0.0 0.00 0.00 0.00 86 1024.6
20181112120412 37 74 0.0 0.0 0.00 0.00 0.00 86 1024.6
20181112115511 37 87 0.0 0.0 0.00 0.00 0.00 86 1024.6
20181112114611 37 87 0.0 0.0 0.00 0.00 0.00 86 1024.6
20181112113710 37 88 0.0 0.0 0.00 0.00 0.00 86 1024.6
20181112112809 38 87 0.0 0.0 0.00 0.00 0.00 86 1024.6
20181112111908 37 88 0.0 0.0 0.00 0.00 0.00 85 1024.6
20181112111008 38 88 0.0 0.0 0.00 0.00 0.00 85 1024.6
20181112110106 38 87 0.0 0.0 0.00 0.00 0.00 84 1024.7
20181112105206 38 88 0.0 0.0 0.00 0.00 0.00 84 1024.7
20181112104305 39 88 0.0 0.0 0.00 0.00 0.00 84 1024.7
20181112103404 39 87 0.0 0.0 0.00 0.00 0.00 83 1024.7
20181112102503 39 88 0.0 0.0 0.00 0.00 0.00 84 1024.7
20181112101602 39 88 0.0 0.0 0.00 0.00 0.00 85 1024.7
20181112100702 39 88 0.0 0.0 0.00 0.00 0.00 83 1024.7
20181112095801 40 88 0.0 0.0 0.00 0.00 0.00 84 1024.7
20181112094900 40 88 0.0 0.0 0.00 0.00 0.00 83 1024.7
20181112093959 40 88 0.0 0.0 0.00 0.00 0.00 84 1024.7
20181112093058 40 87 0.0 0.0 0.00 0.00 0.00 84 1024.7
20181112092157 40 88 0.0 0.0 0.00 0.00 0.00 86 1024.3
20181112091256 40 88 0.0 0.0 0.00 0.00 0.00 85 1024.3
20181112090355 40 87 0.0 0.0 0.00 0.00 0.00 84 1024.3
20181112085454 40 87 0.0 0.0 0.00 0.00 0.00 85 1024.3
20181112084553 40 88 0.0 0.0 0.00 0.00 0.00 86 1024.3
20181112083652 40 87 0.0 0.0 0.00 0.00 0.00 83 1024.3
20181112082751 40 87 0.0 0.0 0.00 0.00 0.00 83 1024.3
20181112081850 41 87 0.0 0.0 0.00 0.00 0.00 83 1024.3
20181112080949 41 88 0.0 0.0 0.00 0.00 0.00 82 1023.9
20181112080049 41 88 0.0 0.0 0.00 0.00 0.00 82 1023.9
20181112075148 42 88 0.0 0.0 0.00 0.00 0.00 82 1023.9
20181112074247 42 87 0.0 0.0 0.00 0.00 0.00 83 1023.9
20181112073346 42 87 0.0 0.0 0.00 0.00 0.00 82 1023.9
20181112072445 42 87 0.0 0.0 0.00 0.00 0.00 82 1023.9
20181112071545 42 88 0.0 0.0 0.00 0.00 0.00 81 1023.9
20181112070644 42 87 0.0 0.0 0.00 0.00 0.00 80 1023.5
20181112065743 42 87 0.0 0.0 0.00 0.00 0.00 80 1023.5
20181112064843 43 87 0.0 0.0 0.00 0.00 0.00 79 1023.5
20181112063941 43 87 0.0 0.0 0.00 0.00 0.00 80 1023.5
20181112063040 43 88 0.0 0.0 0.00 0.00 0.00 79 1023.2
20181112062139 43 87 0.0 0.0 0.00 0.00 0.00 78 1023.2
20181112061238 43 88 0.0 0.0 0.00 0.00 0.00 76 1023.2
20181112060336 44 88 0.0 0.0 0.00 0.00 0.00 75 1023.2
20181112055435 45 88 0.0 0.0 0.00 0.00 0.00 76 1023.2
20181112054534 45 87 0.0 0.0 0.00 0.00 0.00 75 1022.8
20181112053632 45 88 0.0 0.0 0.00 0.00 0.00 74 1022.8
20181112052731 45 88 0.0 0.0 0.00 0.00 0.00 73 1022.8
20181112051830 46 88 0.0 0.0 0.00 0.00 0.00 72 1022.8
20181112050929 47 88 0.0 0.0 0.00 0.00 0.00 72 1022.8
20181112050028 48 88 0.0 0.0 0.00 0.00 0.00 70 1022.5
20181112045127 48 88 0.0 0.0 0.00 0.00 0.00 70 1022.4
20181112044226 48 88 0.0 0.0 0.00 0.00 0.00 69 1022.1
20181112043324 49 346 0.0 0.0 0.00 0.00 0.00 69 1022.1
20181112042423 49 340 0.0 0.0 0.00 0.00 0.00 68 1022.1
20181112041523 50 340 0.0 0.0 0.00 0.00 0.00 66 1022.1
20181112040622 50 340 0.0 0.0 0.00 0.00 0.00 65 1021.7
20181112035722 51 340 0.0 0.0 0.00 0.00 0.00 64 1021.7
20181112034820 51 340 0.0 0.0 0.00 0.00 0.00 63 1021.7
20181112033919 51 340 0.0 0.0 0.00 0.00 0.00 62 1021.7
20181112033018 52 340 0.0 0.0 0.00 0.00 0.00 61 1021.3
20181112032118 53 340 0.0 1.0 0.00 0.00 0.00 60 1021.3
20181112031217 53 340 0.0 1.0 0.00 0.00 0.00 60 1021.3
20181112030316 54 340 1.0 1.0 0.00 0.00 0.00 59 1021.3
20181112025415 54 340 1.0 1.0 0.00 0.00 0.00 59 1021.0
20181112024514 55 340 1.0 2.0 0.00 0.00 0.00 57 1021.0
20181112023613 55 340 0.0 2.0 0.00 0.00 0.00 55 1021.0
20181112022711 56 347 1.0 1.0 0.00 0.00 0.00 55 1020.7
20181112021810 56 347 1.0 1.0 0.00 0.00 0.00 53 1020.7
20181112020910 57 342 0.0 2.0 0.00 0.00 0.00 51 1020.4
20181112020009 58 342 0.0 2.0 0.00 0.00 0.00 50 1020.4
20181112015108 59 339 1.0 2.0 0.00 0.00 0.00 49 1020.4
20181112014207 59 346 1.0 2.0 0.00 0.00 0.00 48 1020.1
20181112013306 60 342 1.0 3.0 0.00 0.00 0.00 46 1020.1
20181112012406 61 331 1.0 3.0 0.00 0.00 0.00 45 1020.1
20181112011505 61 339 1.0 3.0 0.00 0.00 0.00 44 1020.1
20181112010604 62 332 1.0 5.0 0.00 0.00 0.00 43 1019.8
20181112005703 63 322 1.0 5.0 0.00 0.00 0.00 42 1019.8
20181112004801 64 356 2.0 5.0 0.00 0.00 0.00 41 1019.8
20181112003900 65 327 1.0 5.0 0.00 0.00 0.00 39 1019.5
20181112002959 66 331 1.0 7.0 0.00 0.00 0.00 38 1019.5
20181112002058 66 353 2.0 7.0 0.00 0.00 0.00 36 1019.5
20181112001157 67 331 2.0 5.0 0.00 0.00 0.00 36 1019.5